sensor_id;sensor_type;location;lat;lon;timestamp;P1;durP1;ratioP1;P2;durP2;ratioP2
71715;SDS011;59568;52.128;5.434;2022-08-30T00:00:47;4.97;;;1.10;;
71715;SDS011;59568;52.128;5.434;2022-08-30T00:03:35;3.50;;;1.27;;
71715;SDS011;59568;52.128;5.434;2022-08-30T00:06:04;4.22;;;1.75;;
71715;SDS011;59568;52.128;5.434;2022-08-30T00:08:32;4.40;;;1.63;;
71715;SDS011;59568;52.128;5.434;2022-08-30T00:11:00;3.88;;;1.55;;
71715;SDS011;59568;52.128;5.434;2022-08-30T00:13:28;3.08;;;1.10;;
71715;SDS011;59568;52.128;5.434;2022-08-30T00:15:55;6.23;;;2.47;;
71715;SDS011;59568;52.128;5.434;2022-08-30T00:18:22;3.47;;;1.27;;
71715;SDS011;59568;52.128;5.434;2022-08-30T00:20:50;4.35;;;1.38;;
71715;SDS011;59568;52.128;5.434;2022-08-30T00:23:17;2.70;;;1.42;;
71715;SDS011;59568;52.128;5.434;2022-08-30T00:25:44;3.38;;;1.38;;
71715;SDS011;59568;52.128;5.434;2022-08-30T00:28:11;3.57;;;1.33;;
71715;SDS011;59568;52.128;5.434;2022-08-30T00:30:38;4.15;;;1.63;;
71715;SDS011;59568;52.128;5.434;2022-08-30T00:33:05;3.72;;;1.50;;
71715;SDS011;59568;52.128;5.434;2022-08-30T00:35:32;3.42;;;1.27;;
71715;SDS011;59568;52.128;5.434;2022-08-30T00:37:59;4.35;;;1.58;;
71715;SDS011;59568;52.128;5.434;2022-08-30T00:40:25;3.07;;;2.10;;
71715;SDS011;59568;52.128;5.434;2022-08-30T00:42:54;3.95;;;1.52;;
71715;SDS011;59568;52.128;5.434;2022-08-30T00:45:34;4.05;;;1.60;;
71715;SDS011;59568;52.128;5.434;2022-08-30T00:48:02;6.57;;;1.80;;
71715;SDS011;59568;52.128;5.434;2022-08-30T00:50:38;2.47;;;1.30;;
71715;SDS011;59568;52.128;5.434;2022-08-30T00:53:09;4.67;;;1.50;;
71715;SDS011;59568;52.128;5.434;2022-08-30T00:55:40;2.33;;;1.45;;
71715;SDS011;59568;52.128;5.434;2022-08-30T00:58:10;2.78;;;1.70;;
71715;SDS011;59568;52.128;5.434;2022-08-30T01:00:41;4.38;;;1.70;;
71715;SDS011;59568;52.128;5.434;2022-08-30T01:03:08;4.32;;;1.73;;
71715;SDS011;59568;52.128;5.434;2022-08-30T01:05:38;3.23;;;1.50;;
71715;SDS011;59568;52.128;5.434;2022-08-30T01:08:05;3.22;;;1.73;;
71715;SDS011;59568;52.128;5.434;2022-08-30T01:10:32;6.55;;;1.65;;
71715;SDS011;59568;52.128;5.434;2022-08-30T01:13:00;3.95;;;1.90;;
71715;SDS011;59568;52.128;5.434;2022-08-30T01:15:28;4.05;;;1.42;;
71715;SDS011;59568;52.128;5.434;2022-08-30T01:17:56;3.47;;;1.93;;
71715;SDS011;59568;52.128;5.434;2022-08-30T01:20:30;3.42;;;2.15;;
71715;SDS011;59568;52.128;5.434;2022-08-30T01:23:04;7.05;;;2.15;;
71715;SDS011;59568;52.128;5.434;2022-08-30T01:25:38;4.88;;;1.80;;
71715;SDS011;59568;52.128;5.434;2022-08-30T01:28:10;3.88;;;2.05;;
71715;SDS011;59568;52.128;5.434;2022-08-30T01:30:39;5.30;;;2.03;;
71715;SDS011;59568;52.128;5.434;2022-08-30T01:33:08;5.50;;;2.10;;
71715;SDS011;59568;52.128;5.434;2022-08-30T01:35:46;3.42;;;2.50;;
71715;SDS011;59568;52.128;5.434;2022-08-30T01:39:04;3.22;;;1.85;;
71715;SDS011;59568;52.128;5.434;2022-08-30T01:41:17;4.18;;;1.92;;
71715;SDS011;59568;52.128;5.434;2022-08-30T01:43:51;4.33;;;2.43;;
71715;SDS011;59568;52.128;5.434;2022-08-30T01:46:19;4.10;;;2.08;;
71715;SDS011;59568;52.128;5.434;2022-08-30T01:48:51;4.90;;;2.10;;
71715;SDS011;59568;52.128;5.434;2022-08-30T01:51:20;5.45;;;2.38;;
71715;SDS011;59568;52.128;5.434;2022-08-30T01:53:48;3.85;;;2.22;;
71715;SDS011;59568;52.128;5.434;2022-08-30T01:56:15;5.17;;;2.50;;
71715;SDS011;59568;52.128;5.434;2022-08-30T01:58:42;4.63;;;2.05;;
71715;SDS011;59568;52.128;5.434;2022-08-30T02:01:10;3.65;;;2.28;;
71715;SDS011;59568;52.128;5.434;2022-08-30T02:03:40;4.32;;;2.42;;
71715;SDS011;59568;52.128;5.434;2022-08-30T02:06:10;5.20;;;2.20;;
71715;SDS011;59568;52.128;5.434;2022-08-30T02:08:39;4.47;;;2.67;;
71715;SDS011;59568;52.128;5.434;2022-08-30T02:11:06;6.25;;;2.85;;
71715;SDS011;59568;52.128;5.434;2022-08-30T02:13:34;5.03;;;2.38;;
71715;SDS011;59568;52.128;5.434;2022-08-30T02:16:03;4.05;;;2.38;;
71715;SDS011;59568;52.128;5.434;2022-08-30T02:18:35;6.10;;;3.25;;
71715;SDS011;59568;52.128;5.434;2022-08-30T02:21:03;4.60;;;2.37;;
71715;SDS011;59568;52.128;5.434;2022-08-30T02:23:31;4.68;;;2.70;;
71715;SDS011;59568;52.128;5.434;2022-08-30T02:25:57;3.70;;;2.38;;
71715;SDS011;59568;52.128;5.434;2022-08-30T02:28:24;5.65;;;3.28;;
71715;SDS011;59568;52.128;5.434;2022-08-30T02:30:51;5.07;;;2.05;;
71715;SDS011;59568;52.128;5.434;2022-08-30T02:33:18;4.80;;;2.70;;
71715;SDS011;59568;52.128;5.434;2022-08-30T02:35:44;4.28;;;1.95;;
71715;SDS011;59568;52.128;5.434;2022-08-30T02:38:11;5.95;;;3.22;;
71715;SDS011;59568;52.128;5.434;2022-08-30T02:40:39;6.25;;;2.70;;
71715;SDS011;59568;52.128;5.434;2022-08-30T02:43:06;5.97;;;3.33;;
71715;SDS011;59568;52.128;5.434;2022-08-30T02:45:32;5.60;;;2.23;;
71715;SDS011;59568;52.128;5.434;2022-08-30T02:47:59;5.50;;;3.53;;
71715;SDS011;59568;52.128;5.434;2022-08-30T02:50:26;6.30;;;3.30;;
71715;SDS011;59568;52.128;5.434;2022-08-30T02:52:52;4.00;;;2.70;;
71715;SDS011;59568;52.128;5.434;2022-08-30T02:55:20;4.80;;;2.63;;
71715;SDS011;59568;52.128;5.434;2022-08-30T02:57:47;8.57;;;3.70;;
71715;SDS011;59568;52.128;5.434;2022-08-30T03:00:15;4.88;;;3.13;;
71715;SDS011;59568;52.128;5.434;2022-08-30T03:02:44;5.95;;;3.05;;
71715;SDS011;59568;52.128;5.434;2022-08-30T03:05:12;7.20;;;3.58;;
71715;SDS011;59568;52.128;5.434;2022-08-30T03:07:40;4.97;;;2.70;;
71715;SDS011;59568;52.128;5.434;2022-08-30T03:10:08;5.07;;;2.67;;
71715;SDS011;59568;52.128;5.434;2022-08-30T03:12:35;5.60;;;3.00;;
71715;SDS011;59568;52.128;5.434;2022-08-30T03:15:04;4.82;;;3.40;;
71715;SDS011;59568;52.128;5.434;2022-08-30T03:17:31;6.35;;;2.85;;
71715;SDS011;59568;52.128;5.434;2022-08-30T03:19:57;5.32;;;2.83;;
71715;SDS011;59568;52.128;5.434;2022-08-30T03:22:27;5.00;;;3.17;;
71715;SDS011;59568;52.128;5.434;2022-08-30T03:24:54;4.90;;;2.97;;
71715;SDS011;59568;52.128;5.434;2022-08-30T03:27:27;4.70;;;2.60;;
71715;SDS011;59568;52.128;5.434;2022-08-30T03:29:54;5.97;;;3.38;;
71715;SDS011;59568;52.128;5.434;2022-08-30T03:32:21;5.68;;;3.05;;
71715;SDS011;59568;52.128;5.434;2022-08-30T03:34:48;4.00;;;2.80;;
71715;SDS011;59568;52.128;5.434;2022-08-30T03:37:15;4.75;;;2.80;;
71715;SDS011;59568;52.128;5.434;2022-08-30T03:39:42;7.15;;;3.83;;
71715;SDS011;59568;52.128;5.434;2022-08-30T03:42:10;4.97;;;3.30;;
71715;SDS011;59568;52.128;5.434;2022-08-30T03:44:37;4.05;;;2.72;;
71715;SDS011;59568;52.128;5.434;2022-08-30T03:47:05;4.17;;;3.23;;
71715;SDS011;59568;52.128;5.434;2022-08-30T03:49:33;6.38;;;3.20;;
71715;SDS011;59568;52.128;5.434;2022-08-30T03:52:00;5.18;;;3.63;;
71715;SDS011;59568;52.128;5.434;2022-08-30T03:54:27;6.63;;;3.10;;
71715;SDS011;59568;52.128;5.434;2022-08-30T03:56:53;6.18;;;4.22;;
71715;SDS011;59568;52.128;5.434;2022-08-30T03:59:21;5.13;;;3.40;;
71715;SDS011;59568;52.128;5.434;2022-08-30T04:01:47;7.97;;;3.97;;
71715;SDS011;59568;52.128;5.434;2022-08-30T04:04:14;6.25;;;3.13;;
71715;SDS011;59568;52.128;5.434;2022-08-30T04:06:46;5.68;;;4.00;;
71715;SDS011;59568;52.128;5.434;2022-08-30T04:09:12;6.97;;;3.55;;
71715;SDS011;59568;52.128;5.434;2022-08-30T04:11:39;6.33;;;3.97;;
71715;SDS011;59568;52.128;5.434;2022-08-30T04:14:05;6.63;;;3.65;;
71715;SDS011;59568;52.128;5.434;2022-08-30T04:16:32;6.28;;;3.58;;
71715;SDS011;59568;52.128;5.434;2022-08-30T04:18:59;5.95;;;3.50;;
71715;SDS011;59568;52.128;5.434;2022-08-30T04:21:25;5.35;;;3.25;;
71715;SDS011;59568;52.128;5.434;2022-08-30T04:23:52;6.40;;;3.60;;
71715;SDS011;59568;52.128;5.434;2022-08-30T04:26:18;4.70;;;3.35;;
71715;SDS011;59568;52.128;5.434;2022-08-30T04:28:45;5.25;;;3.03;;
71715;SDS011;59568;52.128;5.434;2022-08-30T04:31:13;6.30;;;3.75;;
71715;SDS011;59568;52.128;5.434;2022-08-30T04:33:42;5.50;;;3.70;;
71715;SDS011;59568;52.128;5.434;2022-08-30T04:36:09;7.57;;;4.23;;
71715;SDS011;59568;52.128;5.434;2022-08-30T04:38:36;5.57;;;3.40;;
71715;SDS011;59568;52.128;5.434;2022-08-30T04:41:08;4.43;;;2.90;;
71715;SDS011;59568;52.128;5.434;2022-08-30T04:43:43;6.00;;;3.15;;
71715;SDS011;59568;52.128;5.434;2022-08-30T04:46:11;4.35;;;2.97;;
71715;SDS011;59568;52.128;5.434;2022-08-30T04:48:41;7.50;;;3.60;;
71715;SDS011;59568;52.128;5.434;2022-08-30T04:51:09;5.43;;;3.50;;
71715;SDS011;59568;52.128;5.434;2022-08-30T04:53:37;5.47;;;3.60;;
71715;SDS011;59568;52.128;5.434;2022-08-30T04:56:09;6.10;;;3.78;;
71715;SDS011;59568;52.128;5.434;2022-08-30T04:58:38;5.82;;;3.67;;
71715;SDS011;59568;52.128;5.434;2022-08-30T05:01:10;6.23;;;4.07;;
71715;SDS011;59568;52.128;5.434;2022-08-30T05:03:39;5.50;;;3.33;;
71715;SDS011;59568;52.128;5.434;2022-08-30T05:06:05;7.22;;;4.32;;
71715;SDS011;59568;52.128;5.434;2022-08-30T05:08:32;7.15;;;3.95;;
71715;SDS011;59568;52.128;5.434;2022-08-30T05:11:02;7.93;;;4.45;;
71715;SDS011;59568;52.128;5.434;2022-08-30T05:13:30;5.60;;;3.60;;
71715;SDS011;59568;52.128;5.434;2022-08-30T05:16:02;7.68;;;4.20;;
71715;SDS011;59568;52.128;5.434;2022-08-30T05:18:30;7.82;;;4.40;;
71715;SDS011;59568;52.128;5.434;2022-08-30T05:21:10;5.70;;;3.90;;
71715;SDS011;59568;52.128;5.434;2022-08-30T05:23:42;6.10;;;3.97;;
71715;SDS011;59568;52.128;5.434;2022-08-30T05:26:19;6.07;;;3.83;;
71715;SDS011;59568;52.128;5.434;2022-08-30T05:28:50;5.95;;;4.35;;
71715;SDS011;59568;52.128;5.434;2022-08-30T05:31:21;10.45;;;5.60;;
71715;SDS011;59568;52.128;5.434;2022-08-30T05:33:50;7.70;;;4.18;;
71715;SDS011;59568;52.128;5.434;2022-08-30T05:36:19;6.95;;;4.38;;
71715;SDS011;59568;52.128;5.434;2022-08-30T05:38:47;5.33;;;4.03;;
71715;SDS011;59568;52.128;5.434;2022-08-30T05:41:14;5.43;;;4.13;;
71715;SDS011;59568;52.128;5.434;2022-08-30T05:43:40;6.13;;;4.35;;
71715;SDS011;59568;52.128;5.434;2022-08-30T05:46:08;7.47;;;4.60;;
71715;SDS011;59568;52.128;5.434;2022-08-30T05:48:37;5.78;;;4.32;;
71715;SDS011;59568;52.128;5.434;2022-08-30T05:51:08;6.43;;;3.73;;
71715;SDS011;59568;52.128;5.434;2022-08-30T05:53:38;5.05;;;3.63;;
71715;SDS011;59568;52.128;5.434;2022-08-30T05:56:07;6.35;;;4.13;;
71715;SDS011;59568;52.128;5.434;2022-08-30T05:58:36;5.85;;;3.72;;
71715;SDS011;59568;52.128;5.434;2022-08-30T06:01:03;5.32;;;4.00;;
71715;SDS011;59568;52.128;5.434;2022-08-30T06:03:30;6.17;;;3.80;;
71715;SDS011;59568;52.128;5.434;2022-08-30T06:05:59;6.13;;;3.75;;
71715;SDS011;59568;52.128;5.434;2022-08-30T06:08:26;8.38;;;5.05;;
71715;SDS011;59568;52.128;5.434;2022-08-30T06:10:52;5.53;;;4.13;;
71715;SDS011;59568;52.128;5.434;2022-08-30T06:13:19;4.88;;;3.45;;
71715;SDS011;59568;52.128;5.434;2022-08-30T06:15:46;5.50;;;4.07;;
71715;SDS011;59568;52.128;5.434;2022-08-30T06:18:12;5.47;;;3.63;;
71715;SDS011;59568;52.128;5.434;2022-08-30T06:20:40;4.93;;;4.03;;
71715;SDS011;59568;52.128;5.434;2022-08-30T06:23:08;6.07;;;3.90;;
71715;SDS011;59568;52.128;5.434;2022-08-30T06:25:36;10.75;;;3.78;;
71715;SDS011;59568;52.128;5.434;2022-08-30T06:28:07;7.20;;;4.03;;
71715;SDS011;59568;52.128;5.434;2022-08-30T06:30:34;5.32;;;3.65;;
71715;SDS011;59568;52.128;5.434;2022-08-30T06:33:00;5.22;;;3.28;;
71715;SDS011;59568;52.128;5.434;2022-08-30T06:35:27;5.25;;;3.47;;
71715;SDS011;59568;52.128;5.434;2022-08-30T06:37:54;5.15;;;2.58;;
71715;SDS011;59568;52.128;5.434;2022-08-30T06:40:21;3.63;;;2.50;;
71715;SDS011;59568;52.128;5.434;2022-08-30T06:42:48;6.50;;;3.20;;
71715;SDS011;59568;52.128;5.434;2022-08-30T06:45:15;5.22;;;3.08;;
71715;SDS011;59568;52.128;5.434;2022-08-30T06:47:42;5.68;;;3.17;;
71715;SDS011;59568;52.128;5.434;2022-08-30T06:50:10;4.93;;;2.80;;
71715;SDS011;59568;52.128;5.434;2022-08-30T06:52:38;6.07;;;2.67;;
71715;SDS011;59568;52.128;5.434;2022-08-30T06:55:08;5.20;;;2.60;;
71715;SDS011;59568;52.128;5.434;2022-08-30T06:57:36;4.18;;;2.30;;
71715;SDS011;59568;52.128;5.434;2022-08-30T07:00:04;3.88;;;2.63;;
71715;SDS011;59568;52.128;5.434;2022-08-30T07:02:35;3.15;;;2.25;;
71715;SDS011;59568;52.128;5.434;2022-08-30T07:05:02;5.83;;;2.70;;
71715;SDS011;59568;52.128;5.434;2022-08-30T07:07:29;4.68;;;2.05;;
71715;SDS011;59568;52.128;5.434;2022-08-30T07:09:56;3.60;;;1.70;;
71715;SDS011;59568;52.128;5.434;2022-08-30T07:12:22;7.00;;;2.08;;
71715;SDS011;59568;52.128;5.434;2022-08-30T07:14:49;4.00;;;1.80;;
71715;SDS011;59568;52.128;5.434;2022-08-30T07:17:15;3.43;;;1.60;;
71715;SDS011;59568;52.128;5.434;2022-08-30T07:20:01;4.45;;;1.60;;
71715;SDS011;59568;52.128;5.434;2022-08-30T07:22:31;6.50;;;2.10;;
71715;SDS011;59568;52.128;5.434;2022-08-30T07:24:58;3.00;;;1.60;;
71715;SDS011;59568;52.128;5.434;2022-08-30T07:27:25;4.60;;;1.20;;
71715;SDS011;59568;52.128;5.434;2022-08-30T07:29:52;3.03;;;1.17;;
71715;SDS011;59568;52.128;5.434;2022-08-30T07:32:18;2.00;;;0.98;;
71715;SDS011;59568;52.128;5.434;2022-08-30T07:34:45;2.40;;;0.75;;
71715;SDS011;59568;52.128;5.434;2022-08-30T07:37:12;4.30;;;1.00;;
71715;SDS011;59568;52.128;5.434;2022-08-30T07:39:43;3.60;;;0.80;;
71715;SDS011;59568;52.128;5.434;2022-08-30T07:42:13;1.60;;;0.53;;
71715;SDS011;59568;52.128;5.434;2022-08-30T07:44:39;3.70;;;0.60;;
71715;SDS011;59568;52.128;5.434;2022-08-30T07:47:06;3.80;;;0.50;;
71715;SDS011;59568;52.128;5.434;2022-08-30T07:49:32;3.65;;;0.70;;
71715;SDS011;59568;52.128;5.434;2022-08-30T07:51:59;2.95;;;0.43;;
71715;SDS011;59568;52.128;5.434;2022-08-30T07:54:25;1.77;;;0.30;;
71715;SDS011;59568;52.128;5.434;2022-08-30T07:56:52;1.95;;;0.50;;
71715;SDS011;59568;52.128;5.434;2022-08-30T07:59:21;2.40;;;0.40;;
71715;SDS011;59568;52.128;5.434;2022-08-30T08:01:48;3.42;;;0.40;;
71715;SDS011;59568;52.128;5.434;2022-08-30T08:04:17;1.17;;;0.30;;
71715;SDS011;59568;52.128;5.434;2022-08-30T08:06:44;1.70;;;0.40;;
71715;SDS011;59568;52.128;5.434;2022-08-30T08:09:11;2.17;;;0.40;;
71715;SDS011;59568;52.128;5.434;2022-08-30T08:11:38;2.95;;;0.40;;
71715;SDS011;59568;52.128;5.434;2022-08-30T08:14:06;2.10;;;0.45;;
71715;SDS011;59568;52.128;5.434;2022-08-30T08:16:34;1.73;;;0.50;;
71715;SDS011;59568;52.128;5.434;2022-08-30T08:19:02;2.65;;;0.50;;
71715;SDS011;59568;52.128;5.434;2022-08-30T08:21:34;2.45;;;0.50;;
71715;SDS011;59568;52.128;5.434;2022-08-30T08:24:01;3.38;;;0.45;;
71715;SDS011;59568;52.128;5.434;2022-08-30T08:26:29;1.80;;;0.52;;
71715;SDS011;59568;52.128;5.434;2022-08-30T08:28:56;1.63;;;0.63;;
71715;SDS011;59568;52.128;5.434;2022-08-30T08:31:23;3.00;;;0.57;;
71715;SDS011;59568;52.128;5.434;2022-08-30T08:33:59;1.50;;;0.55;;
71715;SDS011;59568;52.128;5.434;2022-08-30T08:36:28;2.22;;;0.65;;
71715;SDS011;59568;52.128;5.434;2022-08-30T08:38:56;1.85;;;0.50;;
71715;SDS011;59568;52.128;5.434;2022-08-30T08:44:30;1.70;;;0.40;;
71715;SDS011;59568;52.128;5.434;2022-08-30T08:47:17;3.08;;;0.30;;
71715;SDS011;59568;52.128;5.434;2022-08-30T08:49:49;3.53;;;0.40;;
71715;SDS011;59568;52.128;5.434;2022-08-30T08:52:23;2.13;;;0.60;;
71715;SDS011;59568;52.128;5.434;2022-08-30T08:55:23;2.28;;;0.50;;
71715;SDS011;59568;52.128;5.434;2022-08-30T08:57:50;2.88;;;0.50;;
71715;SDS011;59568;52.128;5.434;2022-08-30T09:00:17;2.65;;;0.50;;
71715;SDS011;59568;52.128;5.434;2022-08-30T09:02:45;1.20;;;0.30;;
71715;SDS011;59568;52.128;5.434;2022-08-30T09:05:21;1.35;;;0.30;;
71715;SDS011;59568;52.128;5.434;2022-08-30T09:07:54;1.00;;;0.50;;
71715;SDS011;59568;52.128;5.434;2022-08-30T09:10:25;2.03;;;0.60;;
71715;SDS011;59568;52.128;5.434;2022-08-30T09:13:13;2.67;;;0.60;;
71715;SDS011;59568;52.128;5.434;2022-08-30T09:15:44;1.20;;;0.47;;
71715;SDS011;59568;52.128;5.434;2022-08-30T09:18:10;2.72;;;0.40;;
71715;SDS011;59568;52.128;5.434;2022-08-30T09:20:46;1.35;;;0.38;;
71715;SDS011;59568;52.128;5.434;2022-08-30T09:26:04;1.27;;;0.30;;
71715;SDS011;59568;52.128;5.434;2022-08-30T09:28:42;1.60;;;0.30;;
71715;SDS011;59568;52.128;5.434;2022-08-30T09:31:21;3.20;;;0.43;;
71715;SDS011;59568;52.128;5.434;2022-08-30T09:34:04;3.17;;;0.38;;
71715;SDS011;59568;52.128;5.434;2022-08-30T09:39:12;2.90;;;0.30;;
71715;SDS011;59568;52.128;5.434;2022-08-30T09:41:42;0.85;;;0.32;;
71715;SDS011;59568;52.128;5.434;2022-08-30T09:44:21;1.45;;;0.40;;
71715;SDS011;59568;52.128;5.434;2022-08-30T09:46:51;2.53;;;0.45;;
71715;SDS011;59568;52.128;5.434;2022-08-30T09:58:01;1.27;;;0.30;;
71715;SDS011;59568;52.128;5.434;2022-08-30T10:00:41;2.42;;;0.77;;
71715;SDS011;59568;52.128;5.434;2022-08-30T10:12:29;1.25;;;0.40;;
71715;SDS011;59568;52.128;5.434;2022-08-30T10:20:28;2.50;;;0.50;;
71715;SDS011;59568;52.128;5.434;2022-08-30T10:23:18;3.08;;;0.43;;
71715;SDS011;59568;52.128;5.434;2022-08-30T10:25:55;3.25;;;0.40;;
71715;SDS011;59568;52.128;5.434;2022-08-30T10:28:52;1.23;;;0.40;;
71715;SDS011;59568;52.128;5.434;2022-08-30T10:31:55;1.20;;;0.32;;
71715;SDS011;59568;52.128;5.434;2022-08-30T10:34:48;3.42;;;0.50;;
71715;SDS011;59568;52.128;5.434;2022-08-30T10:37:34;1.48;;;0.30;;
71715;SDS011;59568;52.128;5.434;2022-08-30T10:40:14;2.20;;;0.30;;
71715;SDS011;59568;52.128;5.434;2022-08-30T10:43:07;1.33;;;0.35;;
71715;SDS011;59568;52.128;5.434;2022-08-30T10:45:42;1.13;;;0.50;;
71715;SDS011;59568;52.128;5.434;2022-08-30T10:50:57;4.20;;;0.60;;
71715;SDS011;59568;52.128;5.434;2022-08-30T10:53:31;2.95;;;0.63;;
71715;SDS011;59568;52.128;5.434;2022-08-30T10:56:08;2.80;;;0.57;;
71715;SDS011;59568;52.128;5.434;2022-08-30T10:58:38;2.05;;;0.55;;
71715;SDS011;59568;52.128;5.434;2022-08-30T11:07:13;1.00;;;0.35;;
71715;SDS011;59568;52.128;5.434;2022-08-30T11:12:58;3.38;;;0.50;;
71715;SDS011;59568;52.128;5.434;2022-08-30T11:15:30;1.30;;;0.32;;
71715;SDS011;59568;52.128;5.434;2022-08-30T11:18:03;1.95;;;0.50;;
71715;SDS011;59568;52.128;5.434;2022-08-30T11:20:42;2.45;;;0.30;;
71715;SDS011;59568;52.128;5.434;2022-08-30T11:33:53;1.00;;;0.25;;
71715;SDS011;59568;52.128;5.434;2022-08-30T11:41:34;1.20;;;0.30;;
71715;SDS011;59568;52.128;5.434;2022-08-30T11:44:12;3.60;;;0.30;;
71715;SDS011;59568;52.128;5.434;2022-08-30T11:46:48;1.70;;;0.45;;
71715;SDS011;59568;52.128;5.434;2022-08-30T12:00:44;2.10;;;0.60;;
71715;SDS011;59568;52.128;5.434;2022-08-30T12:05:47;1.30;;;0.40;;
71715;SDS011;59568;52.128;5.434;2022-08-30T12:18:56;2.17;;;0.30;;
71715;SDS011;59568;52.128;5.434;2022-08-30T12:21:31;2.55;;;0.38;;
71715;SDS011;59568;52.128;5.434;2022-08-30T12:26:37;4.60;;;0.55;;
71715;SDS011;59568;52.128;5.434;2022-08-30T12:31:37;1.88;;;0.20;;
71715;SDS011;59568;52.128;5.434;2022-08-30T12:34:06;2.25;;;0.30;;
71715;SDS011;59568;52.128;5.434;2022-08-30T12:36:39;1.20;;;0.30;;
71715;SDS011;59568;52.128;5.434;2022-08-30T12:39:15;2.40;;;0.40;;
71715;SDS011;59568;52.128;5.434;2022-08-30T12:41:45;2.53;;;0.50;;
71715;SDS011;59568;52.128;5.434;2022-08-30T12:44:15;3.50;;;0.32;;
71715;SDS011;59568;52.128;5.434;2022-08-30T12:46:46;1.87;;;0.60;;
71715;SDS011;59568;52.128;5.434;2022-08-30T12:49:15;1.42;;;0.40;;
71715;SDS011;59568;52.128;5.434;2022-08-30T12:51:44;2.92;;;0.32;;
71715;SDS011;59568;52.128;5.434;2022-08-30T12:54:19;3.75;;;0.30;;
71715;SDS011;59568;52.128;5.434;2022-08-30T12:59:37;3.10;;;0.55;;
71715;SDS011;59568;52.128;5.434;2022-08-30T13:02:12;1.60;;;0.50;;
71715;SDS011;59568;52.128;5.434;2022-08-30T13:04:47;2.35;;;0.50;;
71715;SDS011;59568;52.128;5.434;2022-08-30T13:07:31;1.48;;;0.35;;
71715;SDS011;59568;52.128;5.434;2022-08-30T13:12:37;2.73;;;1.27;;
71715;SDS011;59568;52.128;5.434;2022-08-30T13:15:14;3.30;;;0.73;;
71715;SDS011;59568;52.128;5.434;2022-08-30T13:18:09;2.40;;;0.60;;
71715;SDS011;59568;52.128;5.434;2022-08-30T13:24:00;2.63;;;0.70;;
71715;SDS011;59568;52.128;5.434;2022-08-30T13:26:29;2.20;;;0.80;;
71715;SDS011;59568;52.128;5.434;2022-08-30T13:28:59;3.80;;;1.15;;
71715;SDS011;59568;52.128;5.434;2022-08-30T13:31:29;2.28;;;0.95;;
71715;SDS011;59568;52.128;5.434;2022-08-30T13:33:56;1.73;;;0.80;;
71715;SDS011;59568;52.128;5.434;2022-08-30T13:36:24;3.30;;;0.65;;
71715;SDS011;59568;52.128;5.434;2022-08-30T13:38:54;2.33;;;0.80;;
71715;SDS011;59568;52.128;5.434;2022-08-30T13:41:22;2.10;;;0.88;;
71715;SDS011;59568;52.128;5.434;2022-08-30T13:43:55;2.13;;;0.77;;
71715;SDS011;59568;52.128;5.434;2022-08-30T13:46:42;3.20;;;1.17;;
71715;SDS011;59568;52.128;5.434;2022-08-30T13:49:23;2.47;;;0.82;;
71715;SDS011;59568;52.128;5.434;2022-08-30T13:52:12;6.57;;;1.00;;
71715;SDS011;59568;52.128;5.434;2022-08-30T13:54:47;4.35;;;1.38;;
71715;SDS011;59568;52.128;5.434;2022-08-30T13:57:19;3.50;;;1.05;;
71715;SDS011;59568;52.128;5.434;2022-08-30T14:00:10;4.32;;;1.08;;
71715;SDS011;59568;52.128;5.434;2022-08-30T14:02:40;5.70;;;0.90;;
71715;SDS011;59568;52.128;5.434;2022-08-30T14:05:14;4.38;;;1.10;;
71715;SDS011;59568;52.128;5.434;2022-08-30T14:08:00;6.93;;;1.10;;
71715;SDS011;59568;52.128;5.434;2022-08-30T14:10:28;1.90;;;0.80;;
71715;SDS011;59568;52.128;5.434;2022-08-30T14:12:57;3.03;;;0.70;;
71715;SDS011;59568;52.128;5.434;2022-08-30T14:15:34;2.10;;;0.70;;
71715;SDS011;59568;52.128;5.434;2022-08-30T14:18:05;3.57;;;1.20;;
71715;SDS011;59568;52.128;5.434;2022-08-30T14:20:32;1.92;;;0.60;;
71715;SDS011;59568;52.128;5.434;2022-08-30T14:23:04;1.63;;;0.57;;
71715;SDS011;59568;52.128;5.434;2022-08-30T14:25:35;2.63;;;0.47;;
71715;SDS011;59568;52.128;5.434;2022-08-30T14:28:02;2.72;;;0.50;;
71715;SDS011;59568;52.128;5.434;2022-08-30T14:30:28;1.63;;;0.52;;
71715;SDS011;59568;52.128;5.434;2022-08-30T14:32:55;2.35;;;0.70;;
71715;SDS011;59568;52.128;5.434;2022-08-30T14:35:21;2.33;;;0.40;;
71715;SDS011;59568;52.128;5.434;2022-08-30T14:37:48;2.05;;;0.40;;
71715;SDS011;59568;52.128;5.434;2022-08-30T14:40:16;2.97;;;0.47;;
71715;SDS011;59568;52.128;5.434;2022-08-30T14:42:43;1.73;;;0.47;;
71715;SDS011;59568;52.128;5.434;2022-08-30T14:45:10;2.50;;;0.40;;
71715;SDS011;59568;52.128;5.434;2022-08-30T14:47:37;3.30;;;0.57;;
71715;SDS011;59568;52.128;5.434;2022-08-30T14:50:04;2.22;;;0.75;;
71715;SDS011;59568;52.128;5.434;2022-08-30T14:52:32;3.28;;;0.50;;
71715;SDS011;59568;52.128;5.434;2022-08-30T14:54:59;3.08;;;0.60;;
71715;SDS011;59568;52.128;5.434;2022-08-30T14:57:34;1.70;;;0.75;;
71715;SDS011;59568;52.128;5.434;2022-08-30T15:00:04;3.70;;;0.60;;
71715;SDS011;59568;52.128;5.434;2022-08-30T15:02:32;2.47;;;0.40;;
71715;SDS011;59568;52.128;5.434;2022-08-30T15:04:58;2.75;;;0.50;;
71715;SDS011;59568;52.128;5.434;2022-08-30T15:07:25;3.75;;;0.50;;
71715;SDS011;59568;52.128;5.434;2022-08-30T15:09:51;1.33;;;0.55;;
71715;SDS011;59568;52.128;5.434;2022-08-30T15:12:18;2.22;;;0.63;;
71715;SDS011;59568;52.128;5.434;2022-08-30T15:14:44;3.63;;;0.52;;
71715;SDS011;59568;52.128;5.434;2022-08-30T15:17:11;1.92;;;0.75;;
71715;SDS011;59568;52.128;5.434;2022-08-30T15:19:38;2.38;;;0.73;;
71715;SDS011;59568;52.128;5.434;2022-08-30T15:22:05;1.13;;;0.45;;
71715;SDS011;59568;52.128;5.434;2022-08-30T15:24:33;1.88;;;0.40;;
71715;SDS011;59568;52.128;5.434;2022-08-30T15:27:00;4.40;;;0.70;;
71715;SDS011;59568;52.128;5.434;2022-08-30T15:29:27;1.95;;;0.40;;
71715;SDS011;59568;52.128;5.434;2022-08-30T15:31:57;4.97;;;0.50;;
71715;SDS011;59568;52.128;5.434;2022-08-30T15:34:25;1.08;;;0.30;;
71715;SDS011;59568;52.128;5.434;2022-08-30T15:36:54;2.55;;;0.35;;
71715;SDS011;59568;52.128;5.434;2022-08-30T15:39:21;2.22;;;0.40;;
71715;SDS011;59568;52.128;5.434;2022-08-30T15:41:50;2.10;;;0.40;;
71715;SDS011;59568;52.128;5.434;2022-08-30T15:44:23;2.07;;;0.50;;
71715;SDS011;59568;52.128;5.434;2022-08-30T15:46:50;1.35;;;0.40;;
71715;SDS011;59568;52.128;5.434;2022-08-30T15:49:19;1.40;;;0.30;;
71715;SDS011;59568;52.128;5.434;2022-08-30T15:51:49;1.65;;;0.40;;
71715;SDS011;59568;52.128;5.434;2022-08-30T15:54:20;2.38;;;0.38;;
71715;SDS011;59568;52.128;5.434;2022-08-30T15:56:48;0.93;;;0.30;;
71715;SDS011;59568;52.128;5.434;2022-08-30T15:59:15;5.00;;;0.50;;
71715;SDS011;59568;52.128;5.434;2022-08-30T16:01:43;2.38;;;0.50;;
71715;SDS011;59568;52.128;5.434;2022-08-30T16:04:13;3.40;;;0.60;;
71715;SDS011;59568;52.128;5.434;2022-08-30T16:06:40;1.17;;;0.40;;
71715;SDS011;59568;52.128;5.434;2022-08-30T16:09:07;1.20;;;0.47;;
71715;SDS011;59568;52.128;5.434;2022-08-30T16:11:35;1.23;;;0.40;;
71715;SDS011;59568;52.128;5.434;2022-08-30T16:14:02;1.38;;;0.35;;
71715;SDS011;59568;52.128;5.434;2022-08-30T16:16:30;1.60;;;0.30;;
71715;SDS011;59568;52.128;5.434;2022-08-30T16:18:57;2.55;;;0.40;;
71715;SDS011;59568;52.128;5.434;2022-08-30T16:21:28;4.22;;;0.60;;
71715;SDS011;59568;52.128;5.434;2022-08-30T16:23:57;2.42;;;0.50;;
71715;SDS011;59568;52.128;5.434;2022-08-30T16:26:25;1.75;;;0.40;;
71715;SDS011;59568;52.128;5.434;2022-08-30T16:28:54;2.15;;;0.50;;
71715;SDS011;59568;52.128;5.434;2022-08-30T16:31:21;1.50;;;0.45;;
71715;SDS011;59568;52.128;5.434;2022-08-30T16:33:48;1.75;;;0.43;;
71715;SDS011;59568;52.128;5.434;2022-08-30T16:36:18;2.90;;;0.55;;
71715;SDS011;59568;52.128;5.434;2022-08-30T16:38:46;2.38;;;0.43;;
71715;SDS011;59568;52.128;5.434;2022-08-30T16:41:14;1.65;;;0.35;;
71715;SDS011;59568;52.128;5.434;2022-08-30T16:43:47;1.65;;;0.60;;